createdAt,value
2022-08-21T00:00:00.596Z,15.15
2022-08-21T00:03:06.166Z,15.12
2022-08-21T00:06:07.873Z,15.07
2022-08-21T00:09:15.834Z,15.04
2022-08-21T00:12:17.446Z,15.11
2022-08-21T00:15:27.414Z,15.13
2022-08-21T00:18:29.147Z,15.09
2022-08-21T00:21:30.824Z,15.06
2022-08-21T00:24:32.407Z,15.02
2022-08-21T00:27:34.695Z,14.97
2022-08-21T00:30:36.607Z,14.98
2022-08-21T00:33:38.786Z,14.96
2022-08-21T00:36:40.940Z,14.94
2022-08-21T00:39:42.666Z,14.88
2022-08-21T00:42:44.935Z,14.82
2022-08-21T00:45:56.802Z,14.76
2022-08-21T00:48:59.449Z,14.71
2022-08-21T00:52:02.387Z,14.69
2022-08-21T00:55:07.805Z,14.71
2022-08-21T00:58:13.480Z,14.67
2022-08-21T01:01:15.663Z,14.65
2022-08-21T01:04:17.980Z,14.64
2022-08-21T01:07:20.976Z,14.65
2022-08-21T01:10:24.743Z,14.61
2022-08-21T01:13:28.529Z,14.60
2022-08-21T01:16:30.307Z,14.51
2022-08-21T01:19:32.320Z,14.47
2022-08-21T01:22:34.004Z,14.44
2022-08-21T01:25:36.221Z,14.44
2022-08-21T01:28:42.930Z,14.42
2022-08-21T01:31:45.103Z,14.39
2022-08-21T01:34:48.766Z,14.37
2022-08-21T01:37:50.467Z,14.35
2022-08-21T01:40:52.308Z,14.31
2022-08-21T01:43:53.914Z,14.33
2022-08-21T01:46:57.109Z,14.28
2022-08-21T01:49:58.794Z,14.26
2022-08-21T01:53:00.581Z,14.25
2022-08-21T01:56:03.004Z,14.28
2022-08-21T01:59:04.773Z,14.27
2022-08-21T02:02:06.731Z,14.33
2022-08-21T02:05:10.435Z,14.30
2022-08-21T02:08:12.365Z,14.32
2022-08-21T02:11:14.174Z,14.31
2022-08-21T02:14:32.406Z,14.32
2022-08-21T02:17:46.792Z,14.32
2022-08-21T02:20:55.792Z,14.33
2022-08-21T02:23:58.616Z,14.34
2022-08-21T02:27:00.273Z,14.34
2022-08-21T02:30:02.001Z,14.34
2022-08-21T02:33:03.661Z,14.31
2022-08-21T02:36:05.810Z,14.31
2022-08-21T02:39:07.419Z,14.28
2022-08-21T02:42:09.073Z,14.30
2022-08-21T02:45:12.182Z,14.29
2022-08-21T02:48:22.314Z,14.30
2022-08-21T02:51:24.011Z,14.29
2022-08-21T02:54:25.677Z,14.28
2022-08-21T02:57:27.384Z,14.29
2022-08-21T03:00:30.550Z,14.33
2022-08-21T03:03:32.207Z,14.34
2022-08-21T03:06:34.690Z,14.35
2022-08-21T03:09:36.280Z,14.37
2022-08-21T03:12:37.949Z,14.35
2022-08-21T03:15:41.010Z,14.35
2022-08-21T03:18:42.702Z,14.30
2022-08-21T03:21:44.416Z,14.29
2022-08-21T03:24:46.214Z,14.25
2022-08-21T03:27:49.854Z,14.21
2022-08-21T03:30:55.116Z,14.22
2022-08-21T03:33:57.491Z,14.18
2022-08-21T03:36:59.511Z,14.18
2022-08-21T03:40:01.267Z,14.17
2022-08-21T03:43:02.948Z,14.17
2022-08-21T03:46:06.261Z,14.20
2022-08-21T03:49:07.942Z,14.23
2022-08-21T03:52:09.910Z,14.21
2022-08-21T03:55:11.620Z,14.23
2022-08-21T03:58:16.155Z,14.21
2022-08-21T04:01:18.735Z,14.23
2022-08-21T04:04:20.413Z,14.22
2022-08-21T04:07:21.995Z,14.22
2022-08-21T04:10:25.450Z,14.21
2022-08-21T04:13:29.101Z,14.22
2022-08-21T04:16:31.848Z,14.26
2022-08-21T04:19:33.513Z,14.26
2022-08-21T04:22:35.180Z,14.27
2022-08-21T04:25:36.992Z,14.31
2022-08-21T04:28:38.735Z,14.32
2022-08-21T04:31:40.393Z,14.38
2022-08-21T04:34:41.990Z,14.44
2022-08-21T04:37:43.613Z,14.47
2022-08-21T04:40:45.535Z,14.47
2022-08-21T04:43:47.518Z,14.53
2022-08-21T04:46:49.126Z,14.63
2022-08-21T04:49:51.909Z,14.65
2022-08-21T04:52:54.381Z,14.68
2022-08-21T04:56:01.637Z,14.79
2022-08-21T04:59:07.315Z,14.83
2022-08-21T05:02:10.357Z,14.87
2022-08-21T05:05:12.246Z,14.98
2022-08-21T05:08:18.865Z,15.11
2022-08-21T05:11:21.092Z,15.28
2022-08-21T05:14:22.971Z,15.49
2022-08-21T05:17:24.598Z,15.72
2022-08-21T05:20:26.289Z,15.92
2022-08-21T05:23:27.935Z,16.11
2022-08-21T05:26:29.587Z,16.23
2022-08-21T05:29:32.367Z,16.35
2022-08-21T05:32:35.057Z,16.46
2022-08-21T05:35:38.486Z,16.55
2022-08-21T05:38:40.237Z,16.61
2022-08-21T05:41:41.890Z,16.66
2022-08-21T05:44:43.941Z,16.71
2022-08-21T05:47:47.043Z,16.74
2022-08-21T05:50:50.305Z,16.81
2022-08-21T05:53:51.985Z,16.85
2022-08-21T05:56:53.831Z,16.91
2022-08-21T05:59:55.431Z,16.95
2022-08-21T06:02:57.186Z,16.97
2022-08-21T06:05:59.419Z,17.00
2022-08-21T06:09:01.034Z,17.00
2022-08-21T06:12:11.837Z,16.99
2022-08-21T06:15:13.466Z,16.93
2022-08-21T06:18:15.716Z,16.92
2022-08-21T06:21:17.489Z,17.07
2022-08-21T06:24:19.122Z,17.39
2022-08-21T06:27:24.750Z,17.64
2022-08-21T06:30:28.437Z,17.67
2022-08-21T06:33:32.731Z,17.67
2022-08-21T06:36:34.836Z,17.73
2022-08-21T06:39:36.540Z,17.83
2022-08-21T06:42:38.236Z,17.95
2022-08-21T06:45:43.534Z,19.05
2022-08-21T06:48:45.134Z,20.53
2022-08-21T06:51:46.710Z,20.72
2022-08-21T06:54:48.392Z,20.85
2022-08-21T06:57:52.391Z,20.66
2022-08-21T07:00:58.701Z,20.20
2022-08-21T07:04:03.279Z,19.90
2022-08-21T07:07:04.941Z,19.79
2022-08-21T07:10:06.816Z,19.70
2022-08-21T07:13:08.501Z,19.64
2022-08-21T07:16:10.093Z,19.60
2022-08-21T07:19:11.756Z,19.57
2022-08-21T07:22:17.187Z,19.59
2022-08-21T07:25:18.900Z,19.59
2022-08-21T07:28:20.627Z,19.62
2022-08-21T07:31:24.552Z,19.65
2022-08-21T07:34:26.189Z,19.70
2022-08-21T07:37:27.901Z,19.73
2022-08-21T07:40:29.527Z,19.75
2022-08-21T07:43:31.198Z,19.79
2022-08-21T07:46:32.932Z,19.84
2022-08-21T07:49:34.614Z,19.92
2022-08-21T07:52:36.200Z,19.99
2022-08-21T07:55:37.824Z,20.05
2022-08-21T07:58:39.508Z,20.13
2022-08-21T08:01:41.556Z,20.21
2022-08-21T08:04:50.918Z,20.19
2022-08-21T08:07:52.976Z,20.26
2022-08-21T08:10:58.040Z,20.36
2022-08-21T08:14:00.458Z,20.39
2022-08-21T08:17:03.376Z,20.41
2022-08-21T08:20:07.510Z,20.47
2022-08-21T08:23:14.071Z,20.53
2022-08-21T08:26:16.771Z,20.57
2022-08-21T08:29:18.338Z,20.61
2022-08-21T08:32:20.525Z,20.70
2022-08-21T08:35:24.164Z,20.71
2022-08-21T08:38:26.458Z,20.79
2022-08-21T08:41:30.833Z,20.74
2022-08-21T08:44:32.773Z,20.79
2022-08-21T08:47:39.741Z,20.88
2022-08-21T08:50:55.647Z,20.92
2022-08-21T08:54:03.829Z,21.01
2022-08-21T08:57:11.042Z,21.12
2022-08-21T09:00:16.659Z,21.23
2022-08-21T09:03:19.543Z,21.25
2022-08-21T09:06:30.368Z,21.32
2022-08-21T09:10:01.450Z,21.43
2022-08-21T09:13:16.456Z,21.56
2022-08-21T09:16:24.244Z,21.68
2022-08-21T09:19:37.410Z,21.86
2022-08-21T09:23:03.047Z,21.92
2022-08-21T09:26:14.978Z,21.97
2022-08-21T09:29:21.373Z,22.01
2022-08-21T09:32:37.816Z,22.13
2022-08-21T09:35:51.867Z,22.19
2022-08-21T09:38:56.128Z,22.08
2022-08-21T09:42:07.381Z,22.11
2022-08-21T09:45:19.012Z,22.17
2022-08-21T09:48:27.150Z,22.30
2022-08-21T09:51:39.884Z,22.34
2022-08-21T09:54:42.175Z,22.34
2022-08-21T09:57:50.520Z,22.24
2022-08-21T10:01:01.743Z,22.28
2022-08-21T10:04:05.919Z,22.40
2022-08-21T10:07:13.677Z,22.46
2022-08-21T10:10:37.514Z,22.54
2022-08-21T10:13:46.089Z,22.62
2022-08-21T10:16:47.683Z,22.52
2022-08-21T10:20:01.896Z,22.54
2022-08-21T10:23:15.531Z,22.65
2022-08-21T10:26:44.881Z,22.52
2022-08-21T10:29:58.214Z,22.35
2022-08-21T10:33:21.632Z,22.44
2022-08-21T10:36:40.522Z,22.60
2022-08-21T10:39:57.346Z,22.91
2022-08-21T10:43:26.037Z,23.08
2022-08-21T10:46:47.565Z,23.15
2022-08-21T10:50:24.291Z,23.03
2022-08-21T10:53:46.301Z,23.04
2022-08-21T10:56:50.620Z,23.16
2022-08-21T11:00:00.818Z,23.32
2022-08-21T11:03:11.838Z,23.22
2022-08-21T11:06:24.970Z,23.04
2022-08-21T11:09:27.747Z,23.07
2022-08-21T11:12:40.650Z,23.23
2022-08-21T11:15:53.895Z,23.40
2022-08-21T11:19:08.827Z,23.38
2022-08-21T11:22:27.633Z,23.23
2022-08-21T11:25:41.066Z,23.16
2022-08-21T11:29:19.614Z,23.10
2022-08-21T11:32:24.220Z,23.13
2022-08-21T11:35:50.653Z,23.32
2022-08-21T11:39:02.497Z,23.39
2022-08-21T11:42:29.679Z,23.44
2022-08-21T11:45:45.880Z,23.63
2022-08-21T11:48:50.379Z,23.60
2022-08-21T11:52:21.262Z,23.52
2022-08-21T11:55:28.888Z,23.32
2022-08-21T11:58:45.241Z,23.23
2022-08-21T12:01:47.346Z,23.25
2022-08-21T12:05:00.623Z,23.31
2022-08-21T12:08:10.091Z,23.37
2022-08-21T12:11:30.564Z,23.51
2022-08-21T12:14:45.944Z,23.50
2022-08-21T12:18:07.473Z,23.46
2022-08-21T12:21:22.087Z,23.56
2022-08-21T12:24:45.262Z,23.56
2022-08-21T12:27:52.827Z,23.44
2022-08-21T12:30:57.957Z,23.40
2022-08-21T12:34:05.463Z,23.43
2022-08-21T12:37:26.861Z,23.46
2022-08-21T12:40:50.048Z,23.34
2022-08-21T12:44:05.125Z,23.21
2022-08-21T12:47:15.944Z,23.35
2022-08-21T12:50:29.832Z,23.52
2022-08-21T12:53:45.206Z,23.76
2022-08-21T12:56:57.958Z,23.69
2022-08-21T13:00:01.944Z,23.55
2022-08-21T13:03:04.301Z,23.37
2022-08-21T13:06:07.692Z,23.30
2022-08-21T13:09:16.362Z,23.16
2022-08-21T13:12:21.309Z,23.14
2022-08-21T13:15:33.456Z,23.10
2022-08-21T13:18:40.354Z,23.19
2022-08-21T13:21:45.857Z,23.38
2022-08-21T13:24:49.427Z,23.37
2022-08-21T13:28:12.575Z,23.28
2022-08-21T13:31:23.549Z,23.18
2022-08-21T13:34:30.440Z,23.20
2022-08-21T13:37:32.183Z,23.16
2022-08-21T13:40:43.795Z,23.23
2022-08-21T13:43:49.841Z,23.33
2022-08-21T13:46:51.625Z,23.43
2022-08-21T13:49:58.956Z,23.46
2022-08-21T13:53:04.243Z,23.43
2022-08-21T13:56:06.112Z,23.35
2022-08-21T13:59:07.818Z,23.31
2022-08-21T14:02:12.455Z,23.42
2022-08-21T14:05:22.219Z,23.51
2022-08-21T14:08:40.990Z,23.68
2022-08-21T14:11:42.745Z,23.83
2022-08-21T14:14:45.640Z,23.97
2022-08-21T14:17:47.355Z,24.09
2022-08-21T14:20:50.244Z,24.08
2022-08-21T14:24:24.395Z,24.20
2022-08-21T14:27:26.484Z,24.08
2022-08-21T14:30:34.355Z,23.99
2022-08-21T14:33:36.630Z,24.04
2022-08-21T14:36:38.426Z,23.99
2022-08-21T14:39:44.655Z,23.86
2022-08-21T14:42:47.856Z,23.80
2022-08-21T14:45:49.625Z,23.75
2022-08-21T14:48:51.911Z,23.77
2022-08-21T14:51:57.885Z,23.79
2022-08-21T14:54:59.698Z,23.90
2022-08-21T14:58:01.593Z,24.09
2022-08-21T15:01:04.923Z,24.30
2022-08-21T15:04:06.797Z,24.41
2022-08-21T15:07:08.602Z,24.54
2022-08-21T15:10:10.338Z,24.58
2022-08-21T15:13:12.495Z,24.61
2022-08-21T15:16:14.464Z,24.65
2022-08-21T15:19:16.131Z,24.61
2022-08-21T15:22:19.066Z,24.46
2022-08-21T15:25:29.846Z,24.37
2022-08-21T15:28:31.848Z,24.34
2022-08-21T15:31:34.110Z,24.31
2022-08-21T15:34:35.723Z,24.16
2022-08-21T15:37:37.377Z,23.93
2022-08-21T15:40:39.889Z,23.75
2022-08-21T15:43:52.463Z,23.61
2022-08-21T15:46:54.350Z,23.52
2022-08-21T15:49:55.971Z,23.54
2022-08-21T15:52:57.602Z,23.63
2022-08-21T15:56:02.988Z,23.76
2022-08-21T15:59:13.573Z,23.82
2022-08-21T16:02:33.769Z,23.92
2022-08-21T16:05:35.440Z,23.93
2022-08-21T16:08:37.104Z,23.90
2022-08-21T16:11:39.750Z,23.81
2022-08-21T16:14:41.423Z,23.71
2022-08-21T16:17:48.659Z,23.64
2022-08-21T16:20:50.322Z,23.57
2022-08-21T16:23:52.039Z,23.52
2022-08-21T16:26:58.084Z,23.46
2022-08-21T16:30:01.173Z,23.38
2022-08-21T16:33:05.159Z,23.32
2022-08-21T16:36:07.990Z,23.25
2022-08-21T16:39:09.865Z,23.18
2022-08-21T16:42:16.098Z,23.14
2022-08-21T16:45:22.297Z,23.08
2022-08-21T16:48:24.798Z,23.02
2022-08-21T16:51:26.455Z,22.96
2022-08-21T16:54:30.848Z,22.87
2022-08-21T16:57:32.750Z,22.81
2022-08-21T17:00:35.402Z,22.75
2022-08-21T17:03:42.574Z,22.65
2022-08-21T17:06:44.249Z,22.57
2022-08-21T17:09:45.901Z,22.48
2022-08-21T17:12:55.994Z,22.36
2022-08-21T17:15:57.844Z,22.26
2022-08-21T17:18:59.475Z,22.13
2022-08-21T17:22:01.326Z,22.01
2022-08-21T17:25:03.339Z,21.90
2022-08-21T17:28:05.098Z,21.78
2022-08-21T17:31:10.578Z,21.70
2022-08-21T17:34:13.016Z,21.60
2022-08-21T17:37:14.913Z,21.53
2022-08-21T17:40:17.201Z,21.42
2022-08-21T17:43:19.209Z,21.33
2022-08-21T17:46:24.271Z,21.24
2022-08-21T17:49:25.942Z,21.14
2022-08-21T17:52:27.552Z,21.07
2022-08-21T17:55:30.267Z,20.99
2022-08-21T17:58:32.520Z,20.97
2022-08-21T18:01:42.508Z,20.88
2022-08-21T18:04:44.171Z,20.76
2022-08-21T18:07:45.949Z,20.68
2022-08-21T18:10:50.493Z,20.63
2022-08-21T18:13:54.120Z,20.55
2022-08-21T18:16:56.325Z,20.48
2022-08-21T18:19:59.591Z,20.41
2022-08-21T18:23:01.284Z,20.31
2022-08-21T18:26:03.057Z,20.22
2022-08-21T18:29:09.928Z,20.12
2022-08-21T18:32:30.289Z,20.03
2022-08-21T18:35:33.556Z,19.92
2022-08-21T18:38:35.828Z,19.82
2022-08-21T18:41:37.562Z,19.72
2022-08-21T18:44:41.274Z,19.64
2022-08-21T18:47:48.073Z,19.57
2022-08-21T18:50:50.358Z,19.46
2022-08-21T18:53:53.822Z,19.35
2022-08-21T18:56:57.827Z,19.27
2022-08-21T18:59:59.633Z,19.19
2022-08-21T19:06:24.548Z,19.04
2022-08-21T19:09:26.179Z,18.96
2022-08-21T19:12:29.667Z,18.91
2022-08-21T19:15:35.461Z,18.84
2022-08-21T19:18:41.216Z,18.79
2022-08-21T19:21:44.621Z,18.71
2022-08-21T19:24:49.692Z,18.65
2022-08-21T19:27:52.097Z,18.58
2022-08-21T19:31:05.286Z,18.55
2022-08-21T19:34:15.845Z,18.48
2022-08-21T19:37:18.315Z,18.41
2022-08-21T19:40:22.271Z,18.34
2022-08-21T19:43:29.185Z,18.27
2022-08-21T19:46:36.271Z,18.21
2022-08-21T19:49:41.780Z,18.14
2022-08-21T19:52:51.212Z,18.08
2022-08-21T19:55:53.278Z,17.99
2022-08-21T19:58:55.982Z,17.92
2022-08-21T20:01:57.590Z,17.83
2022-08-21T20:04:59.205Z,17.75
2022-08-21T20:08:01.028Z,17.69
2022-08-21T20:11:04.221Z,17.63
2022-08-21T20:14:09.187Z,17.56
2022-08-21T20:17:13.967Z,17.49
2022-08-21T20:20:15.662Z,17.42
2022-08-21T20:23:18.454Z,17.37
2022-08-21T20:26:32.439Z,17.30
2022-08-21T20:29:39.217Z,17.28
2022-08-21T20:32:41.136Z,17.20
2022-08-21T20:35:48.497Z,17.13
2022-08-21T20:38:53.749Z,17.09
2022-08-21T20:41:56.565Z,17.03
2022-08-21T20:44:58.478Z,16.97
2022-08-21T20:48:48.883Z,16.93
2022-08-21T20:51:58.669Z,16.87
2022-08-21T20:55:09.901Z,16.85
2022-08-21T20:58:24.349Z,16.82
2022-08-21T21:01:34.281Z,16.75
2022-08-21T21:05:10.502Z,16.70
2022-08-21T21:08:30.019Z,16.65
2022-08-21T21:15:05.333Z,16.57
2022-08-21T21:18:13.094Z,16.51
2022-08-21T21:21:32.858Z,16.48
2022-08-21T21:24:54.469Z,16.46
2022-08-21T21:28:26.234Z,16.41
2022-08-21T21:31:28.675Z,16.37
2022-08-21T21:34:35.640Z,16.35
2022-08-21T21:37:37.122Z,16.28
2022-08-21T21:41:03.030Z,16.24
2022-08-21T21:44:16.752Z,16.18
2022-08-21T21:47:18.280Z,16.08
2022-08-21T21:50:46.192Z,16.05
2022-08-21T21:54:09.112Z,16.00
2022-08-21T21:57:39.816Z,15.96
2022-08-21T22:00:52.303Z,15.97
2022-08-21T22:03:54.491Z,15.89
2022-08-21T22:07:28.619Z,15.88
2022-08-21T22:10:48.103Z,15.81
2022-08-21T22:14:15.372Z,15.75
2022-08-21T22:17:26.059Z,15.70
2022-08-21T22:20:46.805Z,15.66
2022-08-21T22:23:52.948Z,15.64
2022-08-21T22:27:01.930Z,15.61
2022-08-21T22:30:09.908Z,15.55
2022-08-21T22:33:20.141Z,15.53
2022-08-21T22:36:22.652Z,15.47
2022-08-21T22:43:02.460Z,15.39
2022-08-21T22:46:06.791Z,15.36
2022-08-21T22:49:25.184Z,15.38
2022-08-21T22:52:37.645Z,15.32
2022-08-21T22:55:52.579Z,15.28
2022-08-21T22:59:01.693Z,15.26
2022-08-21T23:02:28.866Z,15.23
2022-08-21T23:05:30.523Z,15.20
2022-08-21T23:08:36.487Z,15.19
2022-08-21T23:11:42.735Z,15.16
2022-08-21T23:14:44.551Z,15.14
2022-08-21T23:18:01.951Z,15.15
2022-08-21T23:21:26.029Z,15.13
2022-08-21T23:24:49.737Z,15.11
2022-08-21T23:28:01.206Z,15.08
2022-08-21T23:31:14.521Z,15.08
2022-08-21T23:34:50.010Z,15.07
2022-08-21T23:38:21.806Z,15.05
2022-08-21T23:41:34.346Z,15.08
2022-08-21T23:45:13.967Z,15.07
2022-08-21T23:48:42.361Z,15.07
2022-08-21T23:52:12.176Z,15.03
2022-08-21T23:55:41.822Z,15.00
2022-08-21T23:58:59.719Z,14.94
